Time;durP1;ratioP1;P1;durP2;ratioP2;P2;SDS_P1;SDS_P2;PMS_P1;PMS_P2;Temp;Humidity;BMP_temperature;BMP_pressure;BME280_temperature;BME280_humidity;BME280_pressure;Samples;Min_cycle;Max_cycle;Signal;HPM_P1;HPM_P2
2023/05/03 00:02:16;;;;;;;;;;;11.80;99.90;;;;;;5076438;28;20370;-54
2023/05/03 00:04:45;;;;;;;;;;;11.80;99.90;;;;;;5077017;28;19974;-54
2023/05/03 00:07:10;;;;;;;;;;;11.80;99.90;;;;;;5076847;28;19935;-54
2023/05/03 00:09:36;;;;;;;;;;;11.80;99.90;;;;;;5076676;28;19913;-54
2023/05/03 00:12:04;;;;;;;;;;;11.80;99.90;;;;;;5076807;28;19920;-54
2023/05/03 00:14:30;;;;;;;;;;;11.80;99.90;;;;;;5076777;28;20290;-54
2023/05/03 00:16:56;;;;;;;;;;;11.80;99.90;;;;;;5076331;28;19920;-54
2023/05/03 00:19:25;;;;;;;;;;;11.90;99.90;;;;;;5076427;28;20011;-54
2023/05/03 00:21:51;;;;;;;;;;;11.90;99.90;;;;;;5076570;28;20373;-54
2023/05/03 00:24:17;;;;;;;;;;;11.80;99.90;;;;;;5076371;28;19963;-54
2023/05/03 00:26:43;;;;;;;;;;;11.80;99.90;;;;;;5076672;28;19908;-54
2023/05/03 00:29:09;;;;;;;;;;;11.70;99.90;;;;;;5076423;28;19912;-54
2023/05/03 00:31:34;;;;;;;;;;;11.70;99.90;;;;;;5076558;28;19913;-54
2023/05/03 00:34:00;;;;;;;;;;;11.70;99.90;;;;;;5076442;28;19919;-54
2023/05/03 00:36:27;;;;;;;;;;;11.70;99.90;;;;;;5076438;28;20335;-54
2023/05/03 00:38:53;;;;;;;;;;;11.80;99.90;;;;;;5076194;28;19938;-54
2023/05/03 00:41:19;;;;;;;;;;;11.70;99.90;;;;;;5076300;28;19912;-54
2023/05/03 00:43:45;;;;;;;;;;;11.70;99.90;;;;;;5076080;28;19919;-54
2023/05/03 00:46:11;;;;;;;;;;;11.70;99.90;;;;;;5058337;28;19913;-54
2023/05/03 00:48:37;;;;;;;;;;;11.70;99.90;;;;;;5076086;28;19919;-54
2023/05/03 00:51:04;;;;;;;;;;;11.70;99.90;;;;;;5057814;28;19912;-54
2023/05/03 00:53:30;;;;;;;;;;;11.60;99.90;;;;;;5076130;28;19919;-54
2023/05/03 00:55:57;;;;;;;;;;;11.70;99.90;;;;;;5058161;28;20366;-54
2023/05/03 00:58:23;;;;;;;;;;;11.60;99.90;;;;;;5075698;28;19920;-54
2023/05/03 01:00:49;;;;;;;;;;;11.60;99.90;;;;;;5075767;28;19916;-54
2023/05/03 01:03:16;;;;;;;;;;;11.60;99.90;;;;;;5075701;28;20373;-54
2023/05/03 01:05:57;;;;;;;;;;;11.60;99.90;;;;;;5057692;28;19923;-54
2023/05/03 01:08:28;;;;;;;;;;;11.60;99.90;;;;;;5057808;28;19999;-54
2023/05/03 01:10:59;;;;;;;;;;;11.60;99.90;;;;;;5075665;28;19912;-54
2023/05/03 01:13:31;;;;;;;;;;;11.60;99.90;;;;;;5075520;28;19980;-54
2023/05/03 01:16:08;;;;;;;;;;;11.60;99.90;;;;;;5057695;28;19958;-54
2023/05/03 01:18:38;;;;;;;;;;;11.60;99.90;;;;;;5075421;28;20270;-55
2023/05/03 01:21:04;;;;;;;;;;;11.60;99.90;;;;;;5057385;28;19924;-54
2023/05/03 01:23:39;;;;;;;;;;;11.60;99.90;;;;;;5075448;28;20334;-54
2023/05/03 01:26:18;;;;;;;;;;;11.60;99.90;;;;;;5075306;28;20271;-54
2023/05/03 01:28:44;;;;;;;;;;;11.60;99.90;;;;;;5074755;28;19955;-54
2023/05/03 01:31:10;;;;;;;;;;;11.70;99.90;;;;;;5075420;28;19913;-54
2023/05/03 01:33:37;;;;;;;;;;;11.80;99.90;;;;;;5075193;28;20298;-54
2023/05/03 01:36:09;;;;;;;;;;;11.80;99.90;;;;;;5075453;28;19913;-54
2023/05/03 01:38:36;;;;;;;;;;;11.70;99.90;;;;;;5075455;28;20107;-54
2023/05/03 01:41:10;;;;;;;;;;;11.80;99.90;;;;;;5074963;28;19916;-54
2023/05/03 01:43:36;;;;;;;;;;;11.80;99.90;;;;;;5075208;28;20306;-54
2023/05/03 01:46:02;;;;;;;;;;;11.80;99.90;;;;;;5075136;28;19916;-54
2023/05/03 01:48:28;;;;;;;;;;;11.80;99.90;;;;;;5074955;28;19999;-54
2023/05/03 01:50:55;;;;;;;;;;;11.90;99.90;;;;;;5075241;28;19913;-54
2023/05/03 01:53:23;;;;;;;;;;;11.80;99.90;;;;;;5074966;28;19956;-54
2023/05/03 01:55:49;;;;;;;;;;;11.80;99.90;;;;;;5074919;28;19913;-54
2023/05/03 01:58:14;;;;;;;;;;;11.80;99.90;;;;;;5057033;28;20007;-54
2023/05/03 02:00:41;;;;;;;;;;;11.90;99.90;;;;;;5074901;28;19917;-54
2023/05/03 02:03:06;;;;;;;;;;;11.90;99.90;;;;;;5056785;28;19920;-54
2023/05/03 02:05:32;;;;;;;;;;;12.00;99.90;;;;;;5090365;28;19917;-54
2023/05/03 02:07:59;;;;;;;;;;;11.90;99.90;;;;;;5074714;28;20293;-54
2023/05/03 02:10:26;;;;;;;;;;;11.90;99.90;;;;;;5056587;28;20273;-54
2023/05/03 02:12:54;;;;;;;;;;;11.80;99.90;;;;;;5074913;28;19909;-54
2023/05/03 02:15:20;;;;;;;;;;;11.80;99.90;;;;;;5056770;28;19916;-54
2023/05/03 02:17:48;;;;;;;;;;;11.80;99.90;;;;;;5089947;28;19920;-55
2023/05/03 02:20:13;;;;;;;;;;;11.80;99.90;;;;;;5074695;28;19921;-54
2023/05/03 02:22:39;;;;;;;;;;;11.70;99.90;;;;;;5074552;28;19923;-54
2023/05/03 02:25:06;;;;;;;;;;;11.80;99.90;;;;;;5074606;28;19912;-54
2023/05/03 02:27:32;;;;;;;;;;;11.70;99.90;;;;;;5090230;28;19912;-54
2023/05/03 02:29:58;;;;;;;;;;;11.70;99.90;;;;;;5074505;28;20289;-54
2023/05/03 02:32:24;;;;;;;;;;;11.80;99.90;;;;;;5056650;28;19913;-54
2023/05/03 02:34:50;;;;;;;;;;;11.80;99.90;;;;;;5056655;28;19921;-54
2023/05/03 02:37:20;;;;;;;;;;;11.80;99.90;;;;;;5090065;28;19912;-54
2023/05/03 02:39:47;;;;;;;;;;;11.70;99.90;;;;;;5059525;28;19927;-54
2023/05/03 02:42:15;;;;;;;;;;;11.70;99.90;;;;;;5094107;28;19913;-54
2023/05/03 02:44:41;;;;;;;;;;;11.80;99.90;;;;;;5094013;28;19919;-54
2023/05/03 02:47:08;;;;;;;;;;;11.70;99.90;;;;;;5078784;28;20406;-54
2023/05/03 02:49:35;;;;;;;;;;;11.70;99.90;;;;;;5060423;28;19915;-54
2023/05/03 02:52:01;;;;;;;;;;;11.60;99.90;;;;;;5060295;28;20011;-54
2023/05/03 02:54:27;;;;;;;;;;;11.60;99.90;;;;;;5093914;28;19958;-54
2023/05/03 02:56:53;;;;;;;;;;;11.50;99.90;;;;;;5093893;28;19913;-54
2023/05/03 02:59:19;;;;;;;;;;;11.40;99.90;;;;;;5060067;28;20267;-55
2023/05/03 03:01:45;;;;;;;;;;;11.40;99.90;;;;;;5078628;28;19948;-54
2023/05/03 03:04:11;;;;;;;;;;;11.50;99.90;;;;;;5060040;28;19913;-54
2023/05/03 03:06:37;;;;;;;;;;;11.50;99.90;;;;;;5077974;28;19924;-54
2023/05/03 03:09:04;;;;;;;;;;;11.50;99.90;;;;;;5059993;28;19916;-54
2023/05/03 03:11:30;;;;;;;;;;;11.50;99.90;;;;;;5060078;28;19919;-55
2023/05/03 03:13:56;;;;;;;;;;;11.50;99.90;;;;;;5077659;28;20270;-54
2023/05/03 03:16:24;;;;;;;;;;;11.40;99.90;;;;;;5060059;28;20392;-54
2023/05/03 03:18:50;;;;;;;;;;;11.30;99.90;;;;;;5077512;28;19916;-55
2023/05/03 03:21:16;;;;;;;;;;;11.40;99.90;;;;;;5059772;28;19948;-54
2023/05/03 03:23:42;;;;;;;;;;;11.40;99.90;;;;;;5060074;28;19916;-54
2023/05/03 03:26:08;;;;;;;;;;;11.40;99.90;;;;;;5059776;28;19913;-54
2023/05/03 03:28:34;;;;;;;;;;;11.50;99.90;;;;;;5059439;28;20007;-54
2023/05/03 03:31:04;;;;;;;;;;;11.50;99.90;;;;;;5093143;28;20301;-54
2023/05/03 03:33:29;;;;;;;;;;;11.50;99.90;;;;;;5059595;28;19912;-54
2023/05/03 03:36:02;;;;;;;;;;;11.50;99.90;;;;;;5059441;28;19908;-54
2023/05/03 03:38:34;;;;;;;;;;;11.50;99.90;;;;;;5059597;28;20581;-55
2023/05/03 03:41:04;;;;;;;;;;;11.60;99.90;;;;;;5059380;28;19961;-54
2023/05/03 03:43:31;;;;;;;;;;;11.60;99.90;;;;;;5059311;28;19912;-54
2023/05/03 03:45:57;;;;;;;;;;;11.50;99.90;;;;;;5059385;28;19915;-55
2023/05/03 03:48:23;;;;;;;;;;;11.60;99.90;;;;;;5092947;28;19917;-54
2023/05/03 03:50:49;;;;;;;;;;;11.70;99.90;;;;;;5058307;28;19920;-54
2023/05/03 03:53:17;;;;;;;;;;;11.70;99.90;;;;;;5059114;28;19916;-54
2023/05/03 03:55:43;;;;;;;;;;;11.70;99.90;;;;;;5059230;28;20357;-54
2023/05/03 03:58:09;;;;;;;;;;;11.70;99.90;;;;;;5058998;28;19943;-55
2023/05/03 04:00:36;;;;;;;;;;;11.70;99.90;;;;;;5058981;28;19921;-54
2023/05/03 04:03:08;;;;;;;;;;;11.80;99.90;;;;;;5092437;28;20386;-54
2023/05/03 04:05:34;;;;;;;;;;;11.80;99.90;;;;;;5058795;28;19912;-54
2023/05/03 04:08:00;;;;;;;;;;;11.90;99.90;;;;;;5058944;28;19915;-54
2023/05/03 04:10:28;;;;;;;;;;;11.80;99.90;;;;;;5058690;28;19912;-54
2023/05/03 04:12:54;;;;;;;;;;;11.90;99.90;;;;;;5076921;28;19908;-54
2023/05/03 04:15:21;;;;;;;;;;;11.90;99.90;;;;;;5058749;28;19934;-54
2023/05/03 04:17:48;;;;;;;;;;;12.00;99.90;;;;;;5055076;28;20003;-55
2023/05/03 04:20:16;;;;;;;;;;;12.00;99.90;;;;;;5055418;28;20275;-54
2023/05/03 04:22:45;;;;;;;;;;;12.00;99.90;;;;;;5055375;28;20285;-54
2023/05/03 04:25:18;;;;;;;;;;;12.00;99.90;;;;;;5055098;28;19920;-54
2023/05/03 04:27:54;;;;;;;;;;;12.10;99.90;;;;;;5055260;28;19912;-55
2023/05/03 04:30:21;;;;;;;;;;;12.20;99.90;;;;;;5055086;28;20358;-55
2023/05/03 04:32:54;;;;;;;;;;;12.20;99.90;;;;;;5055063;28;19962;-54
2023/05/03 04:35:20;;;;;;;;;;;12.20;99.90;;;;;;5055131;28;19913;-54
2023/05/03 04:37:47;;;;;;;;;;;12.20;99.90;;;;;;5055011;28;20350;-54
2023/05/03 04:40:18;;;;;;;;;;;12.30;99.90;;;;;;5054767;28;19931;-54
2023/05/03 04:42:49;;;;;;;;;;;12.40;99.90;;;;;;5054871;28;20274;-54
2023/05/03 04:45:17;;;;;;;;;;;12.40;99.90;;;;;;5054965;28;19991;-54
2023/05/03 04:47:43;;;;;;;;;;;12.30;99.90;;;;;;5054839;28;20357;-54
2023/05/03 04:50:09;;;;;;;;;;;12.40;99.90;;;;;;5054853;28;19913;-54
2023/05/03 04:52:38;;;;;;;;;;;12.50;99.90;;;;;;5054511;28;19917;-54
2023/05/03 04:55:05;;;;;;;;;;;12.50;99.90;;;;;;5054457;28;19917;-54
2023/05/03 04:57:32;;;;;;;;;;;12.60;99.90;;;;;;5054722;28;19920;-54
2023/05/03 04:59:58;;;;;;;;;;;12.60;99.90;;;;;;5054410;28;19917;-54
2023/05/03 05:02:24;;;;;;;;;;;12.70;99.90;;;;;;5054739;28;19913;-54
2023/05/03 05:04:50;;;;;;;;;;;12.80;99.90;;;;;;5055830;28;19909;-54
2023/05/03 05:07:16;;;;;;;;;;;12.70;99.90;;;;;;5054234;28;19932;-54
2023/05/03 05:09:44;;;;;;;;;;;12.80;99.90;;;;;;5054283;28;20006;-54
2023/05/03 05:12:10;;;;;;;;;;;12.80;99.90;;;;;;5054320;28;19913;-54
2023/05/03 05:14:39;;;;;;;;;;;12.80;99.90;;;;;;5054082;28;20002;-54
2023/05/03 05:17:06;;;;;;;;;;;12.90;99.90;;;;;;5054907;28;20341;-55
2023/05/03 05:19:32;;;;;;;;;;;13.00;99.90;;;;;;5057469;28;20330;-54
2023/05/03 05:21:58;;;;;;;;;;;12.90;99.90;;;;;;5075305;28;19948;-54
2023/05/03 05:24:32;;;;;;;;;;;13.10;99.90;;;;;;5090634;28;19912;-54
2023/05/03 05:26:58;;;;;;;;;;;13.10;99.90;;;;;;5073346;28;20300;-54
2023/05/03 05:29:24;;;;;;;;;;;13.10;99.90;;;;;;5090594;28;19920;-54
2023/05/03 05:31:50;;;;;;;;;;;13.10;99.90;;;;;;5075107;28;19920;-54
2023/05/03 05:34:16;;;;;;;;;;;13.30;99.90;;;;;;5075803;28;20376;-54
2023/05/03 05:36:43;;;;;;;;;;;13.50;99.90;;;;;;5091456;28;19919;-54
2023/05/03 05:39:09;;;;;;;;;;;13.60;99.90;;;;;;5055617;28;19920;-54
2023/05/03 05:41:35;;;;;;;;;;;13.80;99.90;;;;;;5068135;28;19916;-54
2023/05/03 05:44:01;;;;;;;;;;;13.80;99.90;;;;;;5074190;28;19912;-54
2023/05/03 05:46:29;;;;;;;;;;;13.90;99.90;;;;;;5056993;28;19915;-54
2023/05/03 05:48:56;;;;;;;;;;;14.10;99.90;;;;;;5057407;28;19968;-54
2023/05/03 05:51:22;;;;;;;;;;;14.30;99.90;;;;;;5054872;28;19962;-54
2023/05/03 05:53:48;;;;;;;;;;;14.40;99.90;;;;;;5039530;28;20336;-54
2023/05/03 05:56:23;;;;;;;;;;;14.70;99.90;;;;;;5056823;28;19936;-54
2023/05/03 05:58:49;;;;;;;;;;;14.80;99.90;;;;;;5053932;28;19923;-54
2023/05/03 06:01:15;;;;;;;;;;;15.00;99.90;;;;;;5056056;28;19955;-54
2023/05/03 06:03:43;;;;;;;;;;;14.90;99.90;;;;;;5054830;28;20300;-54
2023/05/03 06:06:18;;;;;;;;;;;15.00;99.90;;;;;;5055639;28;19958;-54
2023/05/03 06:08:58;;;;;;;;;;;15.20;99.90;;;;;;5041238;28;20003;-54
2023/05/03 06:11:52;;;;;;;;;;;15.20;99.90;;;;;;5074598;28;20003;-54
2023/05/03 06:14:19;;;;;;;;;;;15.30;99.90;;;;;;5048123;28;19916;-54
2023/05/03 06:16:49;;;;;;;;;;;15.40;99.90;;;;;;5037931;28;19917;-54
2023/05/03 06:19:15;;;;;;;;;;;15.30;99.90;;;;;;5086386;28;19921;-54
2023/05/03 06:21:44;;;;;;;;;;;15.40;99.90;;;;;;5053495;28;20003;-54
2023/05/03 06:24:09;;;;;;;;;;;15.60;99.90;;;;;;5053064;28;19920;-54
2023/05/03 06:26:38;;;;;;;;;;;15.50;99.90;;;;;;5052711;28;20294;-54
2023/05/03 06:29:05;;;;;;;;;;;15.40;99.90;;;;;;5053124;28;19913;-54
2023/05/03 06:31:31;;;;;;;;;;;15.80;99.90;;;;;;5053001;28;20366;-54
2023/05/03 06:33:57;;;;;;;;;;;16.10;99.90;;;;;;5053518;28;19913;-54
2023/05/03 06:36:23;;;;;;;;;;;16.20;99.90;;;;;;5053977;28;20389;-55
2023/05/03 06:38:51;;;;;;;;;;;16.50;99.90;;;;;;5055429;28;19917;-55
2023/05/03 06:41:17;;;;;;;;;;;16.60;99.90;;;;;;5054828;28;20015;-54
2023/05/03 06:43:43;;;;;;;;;;;16.20;99.90;;;;;;5054566;28;19967;-54
2023/05/03 06:46:11;;;;;;;;;;;16.50;99.90;;;;;;5052688;28;20362;-54
2023/05/03 06:48:37;;;;;;;;;;;16.80;99.90;;;;;;5052831;28;19912;-54
2023/05/03 06:51:04;;;;;;;;;;;17.20;99.90;;;;;;5052500;28;19975;-54
2023/05/03 06:53:30;;;;;;;;;;;17.50;99.90;;;;;;5053648;28;19967;-54
2023/05/03 06:55:56;;;;;;;;;;;17.90;99.90;;;;;;5053886;28;19913;-54
2023/05/03 06:58:22;;;;;;;;;;;18.20;99.90;;;;;;5054477;28;20003;-55
2023/05/03 07:00:50;;;;;;;;;;;18.70;99.90;;;;;;5053506;28;19967;-54
2023/05/03 07:03:16;;;;;;;;;;;18.50;99.90;;;;;;5054174;28;19935;-55
2023/05/03 07:05:42;;;;;;;;;;;19.00;99.90;;;;;;5053472;28;19920;-55
2023/05/03 07:08:08;;;;;;;;;;;19.20;99.90;;;;;;5052658;28;19932;-54
2023/05/03 07:10:34;;;;;;;;;;;19.60;99.90;;;;;;5052762;28;19912;-54
2023/05/03 07:12:59;;;;;;;;;;;19.50;98.80;;;;;;5053233;28;19921;-53
2023/05/03 07:15:28;;;;;;;;;;;19.30;99.40;;;;;;5053440;28;20405;-53
2023/05/03 07:17:54;;;;;;;;;;;19.30;99.60;;;;;;5059514;28;19963;-54
2023/05/03 07:20:20;;;;;;;;;;;19.40;98.80;;;;;;5074186;28;19967;-53
2023/05/03 07:22:47;;;;;;;;;;;19.40;98.10;;;;;;5074170;28;19972;-54
2023/05/03 07:25:15;;;;;;;;;;;19.10;99.00;;;;;;5072047;28;19912;-54
2023/05/03 07:30:58;;;;;;;;;;;19.30;98.20;;;;;;5039273;28;19924;-54
2023/05/03 07:33:24;;;;;;;;;;;19.00;99.20;;;;;;5077951;28;19909;-54
2023/05/03 07:35:50;;;;;;;;;;;18.90;99.90;;;;;;5076548;28;19958;-54
2023/05/03 07:38:16;;;;;;;;;;;19.20;98.50;;;;;;5072642;28;19965;-54
2023/05/03 07:40:42;;;;;;;;;;;19.40;98.40;;;;;;5077135;28;20354;-54
2023/05/03 07:43:11;;;;;;;;;;;19.50;96.40;;;;;;5076814;28;19913;-54
2023/05/03 07:45:37;;;;;;;;;;;19.00;97.10;;;;;;5077725;28;19916;-54
2023/05/03 07:48:05;;;;;;;;;;;18.90;96.80;;;;;;5071002;28;19921;-54
2023/05/03 07:50:31;;;;;;;;;;;18.80;98.00;;;;;;5077457;28;19956;-54
2023/05/03 07:52:56;;;;;;;;;;;19.30;97.20;;;;;;5077731;28;19917;-54
2023/05/03 07:55:23;;;;;;;;;;;19.40;95.90;;;;;;5077412;28;19965;-54
2023/05/03 07:57:50;;;;;;;;;;;19.50;94.50;;;;;;5077777;28;19920;-54
2023/05/03 08:00:16;;;;;;;;;;;19.40;95.00;;;;;;5077529;28;19960;-54
2023/05/03 08:02:42;;;;;;;;;;;19.60;94.80;;;;;;5071803;28;19912;-53
2023/05/03 08:05:09;;;;;;;;;;;19.80;93.80;;;;;;5075058;28;20333;-54
2023/05/03 08:07:35;;;;;;;;;;;20.00;93.20;;;;;;5076987;28;19958;-54
2023/05/03 08:10:01;;;;;;;;;;;19.90;92.80;;;;;;5073976;28;20339;-54
2023/05/03 08:12:27;;;;;;;;;;;20.00;92.20;;;;;;5074470;28;20384;-54
2023/05/03 08:14:54;;;;;;;;;;;19.90;90.80;;;;;;5074124;28;19920;-54
2023/05/03 08:17:21;;;;;;;;;;;19.50;92.00;;;;;;5076469;28;19912;-54
2023/05/03 08:19:47;;;;;;;;;;;19.50;92.00;;;;;;5075787;28;19924;-53
2023/05/03 08:22:13;;;;;;;;;;;19.40;91.90;;;;;;5076651;28;19924;-54
2023/05/03 08:24:39;;;;;;;;;;;19.70;92.10;;;;;;5076939;28;20358;-54
2023/05/03 08:27:05;;;;;;;;;;;19.70;91.90;;;;;;5077010;28;19923;-54
2023/05/03 08:29:31;;;;;;;;;;;19.90;90.30;;;;;;5075876;28;19971;-54
2023/05/03 08:31:57;;;;;;;;;;;19.90;90.70;;;;;;5076802;28;20308;-54
2023/05/03 08:34:23;;;;;;;;;;;19.80;91.20;;;;;;5075516;28;20281;-54
2023/05/03 08:36:50;;;;;;;;;;;19.60;90.10;;;;;;5074422;28;19946;-53
2023/05/03 08:39:16;;;;;;;;;;;19.20;90.40;;;;;;5076863;28;19916;-53
2023/05/03 08:41:42;;;;;;;;;;;19.40;91.90;;;;;;5076801;28;20421;-54
2023/05/03 08:44:10;;;;;;;;;;;19.40;91.20;;;;;;5076326;28;19924;-54
2023/05/03 08:46:37;;;;;;;;;;;19.60;92.10;;;;;;5073894;28;19944;-53
2023/05/03 08:49:03;;;;;;;;;;;19.70;91.50;;;;;;5070191;28;19917;-54
2023/05/03 08:51:30;;;;;;;;;;;19.80;91.00;;;;;;5071999;28;19916;-54
2023/05/03 08:53:56;;;;;;;;;;;19.80;89.10;;;;;;5076043;28;20003;-54
2023/05/03 08:56:24;;;;;;;;;;;19.50;85.70;;;;;;5075382;28;19952;-54
2023/05/03 08:58:50;;;;;;;;;;;19.50;86.80;;;;;;5074291;28;19916;-54
2023/05/03 09:01:16;;;;;;;;;;;19.60;90.90;;;;;;5069656;28;19920;-53
2023/05/03 09:03:47;;;;;;;;;;;19.90;90.00;;;;;;5073635;28;19912;-53
2023/05/03 09:06:26;;;;;;;;;;;19.80;85.10;;;;;;5074793;28;20278;-53
2023/05/03 09:08:52;;;;;;;;;;;19.80;88.50;;;;;;5074487;28;19924;-53
2023/05/03 09:11:28;;;;;;;;;;;19.80;89.20;;;;;;5068438;28;19916;-53
2023/05/03 09:14:06;;;;;;;;;;;19.70;90.80;;;;;;5071145;28;19969;-54
2023/05/03 09:16:32;;;;;;;;;;;19.70;91.20;;;;;;5074381;28;19972;-54
2023/05/03 09:18:59;;;;;;;;;;;19.60;92.20;;;;;;5071929;28;19956;-53
2023/05/03 09:21:28;;;;;;;;;;;19.50;92.30;;;;;;5070851;28;20204;-53
2023/05/03 09:23:54;;;;;;;;;;;19.40;92.60;;;;;;5074222;28;19971;-53
2023/05/03 09:26:27;;;;;;;;;;;19.40;92.50;;;;;;5074605;28;19920;-53
2023/05/03 09:28:53;;;;;;;;;;;19.40;93.80;;;;;;5055370;28;20313;-53
2023/05/03 09:31:19;;;;;;;;;;;19.30;93.90;;;;;;5054983;28;19950;-53
2023/05/03 09:33:45;;;;;;;;;;;19.30;94.00;;;;;;5055156;28;19952;-53
2023/05/03 09:36:10;;;;;;;;;;;19.30;95.60;;;;;;5069335;28;19943;-53
2023/05/03 09:38:36;;;;;;;;;;;19.50;95.00;;;;;;5074868;28;19917;-53
2023/05/03 09:41:05;;;;;;;;;;;19.60;94.20;;;;;;5074779;28;19969;-54
2023/05/03 09:43:32;;;;;;;;;;;19.60;93.90;;;;;;5073091;28;19965;-53
2023/05/03 09:46:08;;;;;;;;;;;19.40;94.50;;;;;;5069877;28;19915;-54
2023/05/03 09:48:35;;;;;;;;;;;19.60;94.00;;;;;;5073555;28;19916;-53
2023/05/03 09:51:02;;;;;;;;;;;19.80;93.00;;;;;;5070418;28;19920;-53
2023/05/03 09:53:29;;;;;;;;;;;19.60;93.70;;;;;;5073244;28;19913;-53
2023/05/03 09:55:59;;;;;;;;;;;19.80;92.80;;;;;;5073825;28;19938;-54
2023/05/03 09:58:26;;;;;;;;;;;19.60;91.10;;;;;;5072472;28;20362;-53
2023/05/03 10:00:53;;;;;;;;;;;19.70;92.50;;;;;;5074670;28;19920;-53
2023/05/03 10:03:23;;;;;;;;;;;19.70;93.50;;;;;;5074881;28;20285;-53
2023/05/03 10:05:50;;;;;;;;;;;19.80;94.50;;;;;;5074367;28;19915;-53
2023/05/03 10:08:19;;;;;;;;;;;19.60;94.10;;;;;;5074983;28;19999;-53
2023/05/03 10:10:47;;;;;;;;;;;19.60;92.90;;;;;;5074771;28;19934;-53
2023/05/03 10:13:13;;;;;;;;;;;19.50;93.90;;;;;;5074431;28;19913;-53
2023/05/03 10:15:41;;;;;;;;;;;19.50;94.40;;;;;;5074151;28;20372;-53
2023/05/03 10:18:08;;;;;;;;;;;19.20;95.10;;;;;;5074371;28;19920;-53
2023/05/03 10:20:38;;;;;;;;;;;19.10;96.00;;;;;;5074337;28;19912;-53
2023/05/03 10:23:10;;;;;;;;;;;18.90;96.40;;;;;;5074625;28;19961;-53
2023/05/03 10:25:37;;;;;;;;;;;18.80;96.50;;;;;;5058873;28;19921;-53
2023/05/03 10:28:04;;;;;;;;;;;18.70;97.30;;;;;;5054134;28;19917;-53
2023/05/03 10:30:31;;;;;;;;;;;18.50;98.80;;;;;;5058003;28;19908;-53
2023/05/03 10:32:58;;;;;;;;;;;18.30;99.90;;;;;;5067760;28;19939;-53
2023/05/03 10:35:27;;;;;;;;;;;18.10;99.90;;;;;;5070892;28;19923;-53
2023/05/03 10:37:55;;;;;;;;;;;18.00;99.90;;;;;;5073795;28;20397;-53
2023/05/03 10:40:21;;;;;;;;;;;17.90;99.90;;;;;;5073469;28;20402;-53
2023/05/03 10:42:51;;;;;;;;;;;17.80;99.90;;;;;;5073690;28;19924;-53
2023/05/03 10:45:21;;;;;;;;;;;17.90;99.90;;;;;;5074189;28;19922;-53
2023/05/03 10:48:06;;;;;;;;;;;17.90;99.90;;;;;;5073127;28;19922;-53
2023/05/03 10:50:31;;;;;;;;;;;17.70;99.90;;;;;;5074191;28;19958;-53
2023/05/03 10:52:57;;;;;;;;;;;17.60;99.90;;;;;;5068983;28;19916;-53
2023/05/03 10:55:23;;;;;;;;;;;17.50;99.90;;;;;;5073413;28;19922;-53
2023/05/03 10:57:52;;;;;;;;;;;17.40;99.90;;;;;;5072904;28;20003;-53
2023/05/03 11:00:35;;;;;;;;;;;17.40;99.90;;;;;;5075619;28;19978;-53
2023/05/03 11:03:24;;;;;;;;;;;17.30;99.90;;;;;;5077363;28;19946;-53
2023/05/03 11:05:50;;;;;;;;;;;17.20;99.90;;;;;;5076209;28;19917;-53
2023/05/03 11:08:20;;;;;;;;;;;17.20;99.90;;;;;;5073583;28;19946;-53
2023/05/03 11:10:47;;;;;;;;;;;17.20;99.90;;;;;;5076654;28;19970;-53
2023/05/03 11:13:13;;;;;;;;;;;17.20;99.90;;;;;;5077334;28;20374;-53
2023/05/03 11:15:41;;;;;;;;;;;17.20;99.90;;;;;;5073365;28;19934;-53
2023/05/03 11:18:08;;;;;;;;;;;17.20;99.90;;;;;;5077803;28;20673;-53
2023/05/03 11:20:37;;;;;;;;;;;17.20;99.90;;;;;;5078099;28;19920;-53
2023/05/03 11:23:03;;;;;;;;;;;17.30;99.90;;;;;;5078523;28;19913;-53
2023/05/03 11:25:29;;;;;;;;;;;17.20;99.90;;;;;;5076183;28;19927;-53
2023/05/03 11:27:55;;;;;;;;;;;17.20;99.90;;;;;;5078288;28;20376;-53
2023/05/03 11:30:21;;;;;;;;;;;17.10;99.90;;;;;;5078337;28;19917;-54
2023/05/03 11:32:47;;;;;;;;;;;17.00;99.90;;;;;;5078093;28;20018;-53
2023/05/03 11:35:14;;;;;;;;;;;17.10;99.90;;;;;;5078144;28;19912;-53
2023/05/03 11:37:41;;;;;;;;;;;17.20;99.90;;;;;;5074591;28;19963;-54
2023/05/03 11:40:07;;;;;;;;;;;17.10;99.90;;;;;;5065849;28;19939;-53
2023/05/03 11:42:33;;;;;;;;;;;17.10;99.90;;;;;;5076747;28;20001;-53
2023/05/03 11:44:59;;;;;;;;;;;17.10;99.90;;;;;;5076887;28;19920;-53
2023/05/03 11:47:25;;;;;;;;;;;17.20;99.90;;;;;;5076930;28;20006;-53
2023/05/03 11:49:54;;;;;;;;;;;17.20;99.90;;;;;;5070596;28;19917;-53
2023/05/03 11:52:21;;;;;;;;;;;17.40;99.90;;;;;;5077333;28;19962;-53
2023/05/03 11:54:47;;;;;;;;;;;17.50;99.90;;;;;;5077550;28;19914;-53
2023/05/03 11:57:15;;;;;;;;;;;17.70;99.90;;;;;;5077879;28;20026;-53
2023/05/03 11:59:45;;;;;;;;;;;17.90;99.90;;;;;;5077544;28;19916;-54
2023/05/03 12:02:12;;;;;;;;;;;18.00;99.90;;;;;;5077766;28;19908;-53
2023/05/03 12:04:42;;;;;;;;;;;18.10;99.90;;;;;;5077297;28;19912;-53
2023/05/03 12:07:09;;;;;;;;;;;18.10;99.90;;;;;;5070841;28;19962;-54
2023/05/03 12:09:43;;;;;;;;;;;18.30;99.90;;;;;;5067801;28;20370;-53
2023/05/03 12:12:09;;;;;;;;;;;18.40;99.90;;;;;;5075733;28;19948;-53
2023/05/03 12:14:55;;;;;;;;;;;18.50;99.90;;;;;;5076943;28;19920;-53
2023/05/03 12:17:35;;;;;;;;;;;18.50;99.90;;;;;;5074465;28;20374;-54
2023/05/03 12:20:15;;;;;;;;;;;18.70;99.90;;;;;;5077124;28;19916;-54
2023/05/03 12:22:43;;;;;;;;;;;18.80;99.90;;;;;;5077045;28;20011;-54
2023/05/03 12:25:09;;;;;;;;;;;18.90;99.90;;;;;;5077161;28;19916;-53
2023/05/03 12:27:35;;;;;;;;;;;19.00;99.90;;;;;;5076307;28;19964;-54
2023/05/03 12:30:01;;;;;;;;;;;18.90;99.90;;;;;;5069262;28;19920;-53
2023/05/03 12:32:30;;;;;;;;;;;18.90;99.90;;;;;;5073032;28;19916;-53
2023/05/03 12:34:55;;;;;;;;;;;18.80;99.90;;;;;;5076098;28;19912;-54
2023/05/03 12:37:24;;;;;;;;;;;18.70;99.90;;;;;;5075847;28;19919;-54
2023/05/03 12:39:50;;;;;;;;;;;18.60;99.90;;;;;;5075813;28;20397;-54
2023/05/03 12:42:16;;;;;;;;;;;18.30;99.90;;;;;;5075849;28;19912;-53
2023/05/03 12:44:43;;;;;;;;;;;18.00;99.90;;;;;;5074156;28;19923;-53
2023/05/03 12:47:09;;;;;;;;;;;18.20;99.90;;;;;;5075417;28;19912;-54
2023/05/03 12:49:35;;;;;;;;;;;18.20;99.90;;;;;;5074925;28;19912;-54
2023/05/03 12:52:01;;;;;;;;;;;18.20;99.90;;;;;;5075905;28;19922;-54
2023/05/03 12:54:27;;;;;;;;;;;18.30;99.90;;;;;;5074137;28;19916;-53
2023/05/03 12:56:52;;;;;;;;;;;18.30;99.90;;;;;;5076315;28;19908;-53
2023/05/03 12:59:18;;;;;;;;;;;18.30;99.90;;;;;;5076086;28;20362;-53
2023/05/03 13:01:44;;;;;;;;;;;18.30;99.90;;;;;;5058365;28;19912;-53
2023/05/03 13:04:11;;;;;;;;;;;18.30;99.90;;;;;;5073970;28;19912;-53
2023/05/03 13:06:41;;;;;;;;;;;18.30;99.90;;;;;;5075661;28;20406;-53
2023/05/03 13:20:07;;;;;;;;;;;18.60;99.90;;;;;;5065353;28;19928;-53
2023/05/03 13:22:32;;;;;;;;;;;18.90;99.90;;;;;;5054844;28;19912;-53
2023/05/03 13:24:58;;;;;;;;;;;19.10;99.90;;;;;;5055072;28;20012;-54
2023/05/03 13:27:24;;;;;;;;;;;19.20;99.90;;;;;;5055287;28;19916;-53
2023/05/03 13:29:50;;;;;;;;;;;19.20;99.90;;;;;;5055171;28;19913;-53
2023/05/03 13:32:16;;;;;;;;;;;19.30;99.90;;;;;;5055334;28;20003;-53
2023/05/03 13:34:42;;;;;;;;;;;19.30;99.90;;;;;;5055080;28;19920;-53
2023/05/03 13:37:07;;;;;;;;;;;19.30;99.90;;;;;;5054849;28;19912;-53
2023/05/03 13:39:33;;;;;;;;;;;19.20;99.90;;;;;;5054908;28;19920;-53
2023/05/03 13:41:59;;;;;;;;;;;19.40;99.90;;;;;;5055112;28;19913;-54
2023/05/03 13:44:25;;;;;;;;;;;19.40;99.90;;;;;;5055044;28;19912;-53
2023/05/03 13:46:54;;;;;;;;;;;19.40;99.90;;;;;;5054939;28;19920;-53
2023/05/03 13:49:20;;;;;;;;;;;19.20;99.90;;;;;;5055244;28;19912;-53
2023/05/03 13:51:46;;;;;;;;;;;19.10;99.90;;;;;;5055178;28;19912;-53
2023/05/03 13:54:12;;;;;;;;;;;19.00;99.90;;;;;;5055248;28;19913;-53
2023/05/03 13:56:40;;;;;;;;;;;19.00;99.90;;;;;;5054906;28;20308;-53
2023/05/03 13:59:06;;;;;;;;;;;19.00;99.90;;;;;;5054877;28;20259;-53
2023/05/03 14:01:31;;;;;;;;;;;18.90;99.90;;;;;;5054287;28;19917;-53
2023/05/03 14:03:57;;;;;;;;;;;18.90;99.90;;;;;;5054938;28;19970;-54
2023/05/03 14:06:23;;;;;;;;;;;18.80;99.90;;;;;;5054818;28;20083;-53
2023/05/03 14:08:53;;;;;;;;;;;18.70;99.90;;;;;;5054339;28;19969;-53
2023/05/03 14:11:20;;;;;;;;;;;18.70;99.90;;;;;;5054684;28;20441;-54
2023/05/03 14:13:46;;;;;;;;;;;18.60;99.90;;;;;;5054623;28;19956;-53
2023/05/03 14:16:19;;;;;;;;;;;18.50;99.90;;;;;;5054570;28;20362;-53
2023/05/03 14:18:48;;;;;;;;;;;18.30;99.90;;;;;;5066242;28;19956;-53
2023/05/03 14:21:15;;;;;;;;;;;18.30;99.90;;;;;;5074305;28;20313;-53
2023/05/03 14:23:41;;;;;;;;;;;18.30;99.90;;;;;;5074483;28;19912;-53
2023/05/03 14:26:06;;;;;;;;;;;18.40;99.90;;;;;;5074316;28;19923;-53
2023/05/03 14:28:32;;;;;;;;;;;18.00;99.90;;;;;;5074425;28;19956;-53
2023/05/03 14:30:58;;;;;;;;;;;17.90;99.90;;;;;;5074490;28;19916;-53
2023/05/03 14:33:24;;;;;;;;;;;17.70;99.90;;;;;;5074453;28;19917;-53